Terminal Aerodrome Forecast
Issued by NWS

Home | Current Version | Previous Version | Graphics & Text | Print | Product List | Glossary On
Versions: 1 2 3 4 5 6 7 8 9 10 11
899
FTUS43 KGRB 211721
TAFCWA
TAF
KCWA 211721Z 2118/2218 36012G18KT P6SM SCT050
     FM220000 35005KT P6SM SKC
     FM220400 00000KT P6SM FEW250
     FM220900 00000KT P6SM FEW250
      TEMPO 2209/2213 3SM BR
     FM221400 VRB03KT P6SM SCT250=

USA.gov is the U.S. government's official web portal to all federal, state and local government web resources and services.